createdAt,value
2018-06-29T00:00:14.168Z,24.20
2018-06-29T00:02:51.097Z,24.20
2018-06-29T00:05:27.851Z,24.30
2018-06-29T00:08:05.954Z,24.40
2018-06-29T00:10:43.326Z,24.30
2018-06-29T00:13:22.417Z,24.30
2018-06-29T00:16:00.132Z,24.40
2018-06-29T00:18:36.626Z,24.40
2018-06-29T00:21:13.556Z,24.40
2018-06-29T00:23:51.582Z,24.40
2018-06-29T00:26:29.105Z,24.30
2018-06-29T00:29:05.870Z,24.40
2018-06-29T00:31:42.466Z,24.30
2018-06-29T00:34:18.740Z,24.30
2018-06-29T00:36:56.001Z,24.20
2018-06-29T00:39:33.426Z,24.30
2018-06-29T00:42:12.233Z,24.30
2018-06-29T00:44:48.704Z,24.30
2018-06-29T00:47:25.342Z,24.20
2018-06-29T00:50:02.321Z,24.20
2018-06-29T00:52:39.872Z,24.20
2018-06-29T00:55:17.156Z,24.00
2018-06-29T00:57:55.699Z,24.20
2018-06-29T01:00:33.110Z,24.20
2018-06-29T01:03:10.419Z,24.20
2018-06-29T01:05:48.553Z,24.10
2018-06-29T01:08:25.830Z,24.10
2018-06-29T01:11:02.894Z,24.00
2018-06-29T01:13:39.907Z,24.00
2018-06-29T01:16:21.692Z,24.10
2018-06-29T01:18:59.814Z,24.10
2018-06-29T01:21:36.850Z,25.60
2018-06-29T01:24:14.227Z,24.20
2018-06-29T01:26:51.083Z,24.10
2018-06-29T01:29:28.391Z,24.20
2018-06-29T01:32:05.266Z,24.10
2018-06-29T01:34:43.284Z,24.00
2018-06-29T01:37:20.482Z,23.90
2018-06-29T01:39:57.881Z,23.90
2018-06-29T01:42:35.083Z,24.10
2018-06-29T01:45:11.908Z,23.90
2018-06-29T01:47:48.470Z,23.80
2018-06-29T01:50:25.260Z,23.70
2018-06-29T01:53:02.896Z,23.70
2018-06-29T01:55:40.275Z,23.60
2018-06-29T01:58:17.648Z,23.50
2018-06-29T02:00:54.843Z,23.40
2018-06-29T02:03:32.158Z,23.50
2018-06-29T02:06:09.145Z,23.40
2018-06-29T02:08:45.690Z,23.40
2018-06-29T02:11:22.993Z,23.50
2018-06-29T02:14:00.486Z,23.50
2018-06-29T02:16:38.085Z,23.50
2018-06-29T02:19:15.226Z,23.50
2018-06-29T02:21:52.364Z,23.40
2018-06-29T02:24:29.756Z,23.30
2018-06-29T02:27:06.634Z,23.30
2018-06-29T02:29:43.617Z,23.40
2018-06-29T02:32:23.027Z,23.30
2018-06-29T02:35:00.095Z,23.30
2018-06-29T02:37:37.501Z,23.40
2018-06-29T02:40:14.716Z,23.30
2018-06-29T02:42:51.128Z,23.30
2018-06-29T02:45:28.968Z,23.40
2018-06-29T02:48:06.097Z,23.40
2018-06-29T02:50:43.356Z,23.30
2018-06-29T02:53:20.128Z,23.40
2018-06-29T02:55:57.727Z,23.30
2018-06-29T02:58:34.244Z,23.40
2018-06-29T03:01:11.318Z,23.40
2018-06-29T03:03:48.516Z,23.30
2018-06-29T03:06:26.278Z,23.30
2018-06-29T03:09:02.990Z,23.40
2018-06-29T03:11:40.379Z,23.40
2018-06-29T03:14:17.428Z,23.40
2018-06-29T03:16:54.845Z,23.40
2018-06-29T03:19:32.366Z,23.40
2018-06-29T03:22:10.599Z,23.40
2018-06-29T03:27:24.151Z,23.40
2018-06-29T03:32:38.738Z,23.40
2018-06-29T03:35:15.753Z,23.40
2018-06-29T03:37:53.131Z,23.40
2018-06-29T03:40:30.048Z,23.40
2018-06-29T03:43:07.463Z,23.40
2018-06-29T03:45:44.794Z,23.40
2018-06-29T03:48:22.879Z,23.30
2018-06-29T03:50:59.702Z,23.30
2018-06-29T03:53:37.088Z,23.40
2018-06-29T03:56:14.193Z,23.40
2018-06-29T03:58:51.968Z,23.40
2018-06-29T04:01:29.232Z,23.60
2018-06-29T04:04:06.541Z,23.60
2018-06-29T04:06:43.374Z,23.70
2018-06-29T04:09:20.545Z,22.60
2018-06-29T04:11:56.876Z,23.60
2018-06-29T04:14:34.321Z,23.60
2018-06-29T04:19:48.263Z,23.70
2018-06-29T04:22:25.553Z,23.50
2018-06-29T04:25:03.829Z,23.50
2018-06-29T04:27:40.544Z,23.60
2018-06-29T04:30:18.085Z,23.60
2018-06-29T04:32:55.107Z,23.60
2018-06-29T04:35:32.184Z,23.60
2018-06-29T04:38:09.634Z,23.60
2018-06-29T04:40:47.522Z,23.60
2018-06-29T04:43:24.615Z,23.60
2018-06-29T04:46:01.142Z,23.70
2018-06-29T04:48:38.790Z,23.70
2018-06-29T04:51:16.238Z,23.70
2018-06-29T04:53:54.705Z,23.70
2018-06-29T04:56:32.647Z,23.80
2018-06-29T04:59:09.496Z,23.70
2018-06-29T05:01:46.695Z,23.80
2018-06-29T05:04:23.694Z,23.90
2018-06-29T05:07:01.502Z,24.00
2018-06-29T05:09:38.219Z,24.00
2018-06-29T05:12:15.609Z,24.10
2018-06-29T05:14:53.365Z,24.20
2018-06-29T05:17:30.047Z,24.10
2018-06-29T05:20:07.747Z,24.00
2018-06-29T05:22:45.466Z,24.00
2018-06-29T05:25:22.877Z,24.10
2018-06-29T05:28:01.016Z,24.00
2018-06-29T05:30:38.247Z,24.00
2018-06-29T05:33:15.589Z,24.00
2018-06-29T05:35:53.164Z,24.10
2018-06-29T05:38:30.595Z,24.20
2018-06-29T05:41:08.286Z,24.30
2018-06-29T05:43:45.529Z,24.50
2018-06-29T05:46:22.433Z,24.40
2018-06-29T05:48:59.826Z,24.50
2018-06-29T05:51:36.921Z,24.60
2018-06-29T05:54:14.285Z,24.60
2018-06-29T05:56:51.460Z,24.80
2018-06-29T05:59:28.550Z,24.80
2018-06-29T06:02:05.711Z,24.80
2018-06-29T06:04:42.674Z,24.80
2018-06-29T06:07:19.616Z,24.70
2018-06-29T06:09:57.279Z,24.90
2018-06-29T06:12:34.184Z,24.90
2018-06-29T06:15:11.506Z,24.90
2018-06-29T06:17:48.554Z,24.90
2018-06-29T06:20:27.778Z,25.20
2018-06-29T06:23:16.720Z,25.30
2018-06-29T06:25:53.994Z,25.30
2018-06-29T06:28:31.100Z,25.40
2018-06-29T06:31:08.193Z,25.30
2018-06-29T06:33:45.206Z,25.30
2018-06-29T06:36:22.561Z,25.20
2018-06-29T06:38:59.567Z,25.30
2018-06-29T06:41:36.996Z,25.30
2018-06-29T06:44:14.355Z,25.40
2018-06-29T06:46:51.708Z,25.40
2018-06-29T06:49:28.756Z,25.50
2018-06-29T06:52:06.416Z,25.40
2018-06-29T06:54:43.805Z,25.50
2018-06-29T06:57:20.593Z,25.50
2018-06-29T06:59:57.210Z,25.50
2018-06-29T07:05:38.420Z,25.70
2018-06-29T07:08:21.998Z,25.70
2018-06-29T07:10:59.768Z,25.70
2018-06-29T07:16:13.680Z,25.80
2018-06-29T07:18:50.384Z,25.90
2018-06-29T07:21:27.825Z,25.90
2018-06-29T07:24:05.018Z,26.10
2018-06-29T07:26:42.091Z,26.30
2018-06-29T07:29:18.733Z,26.90
2018-06-29T07:31:57.459Z,28.10
2018-06-29T07:34:34.872Z,29.10
2018-06-29T07:37:11.869Z,30.20
2018-06-29T07:39:48.673Z,30.50
2018-06-29T07:42:25.951Z,31.70
2018-06-29T07:45:03.545Z,32.20
2018-06-29T07:47:40.823Z,32.90
2018-06-29T07:50:17.822Z,33.70
2018-06-29T07:52:55.674Z,33.80
2018-06-29T07:55:32.134Z,32.70
2018-06-29T07:58:09.400Z,32.00
2018-06-29T08:00:46.706Z,31.90
2018-06-29T08:03:23.341Z,33.50
2018-06-29T08:06:00.638Z,34.00
2018-06-29T08:08:37.868Z,34.50
2018-06-29T08:11:14.996Z,34.50
2018-06-29T08:13:52.612Z,33.60
2018-06-29T08:16:29.875Z,35.10
2018-06-29T08:19:06.662Z,35.20
2018-06-29T08:21:43.695Z,35.50
2018-06-29T08:24:20.847Z,35.50
2018-06-29T08:26:58.123Z,35.40
2018-06-29T08:29:35.867Z,34.80
2018-06-29T08:32:13.241Z,34.60
2018-06-29T08:34:50.649Z,35.50
2018-06-29T08:37:28.644Z,36.40
2018-06-29T08:42:46.720Z,36.40
2018-06-29T08:48:00.035Z,36.60
2018-06-29T08:50:37.073Z,36.40
2018-06-29T08:53:14.090Z,37.00
2018-06-29T08:55:51.699Z,36.30
2018-06-29T08:58:28.936Z,35.90
2018-06-29T09:01:05.457Z,34.80
2018-06-29T09:03:42.923Z,36.30
2018-06-29T09:06:20.421Z,36.30
2018-06-29T09:08:57.692Z,36.30
2018-06-29T09:14:12.043Z,36.50
2018-06-29T09:16:50.755Z,36.80
2018-06-29T09:19:27.867Z,35.30
2018-06-29T09:22:05.548Z,34.80
2018-06-29T09:24:42.652Z,35.20
2018-06-29T09:27:20.037Z,34.90
2018-06-29T09:29:58.723Z,33.90
2018-06-29T09:32:35.618Z,34.60
2018-06-29T09:35:12.573Z,34.40
2018-06-29T09:37:49.904Z,34.70
2018-06-29T09:40:26.591Z,35.10
2018-06-29T09:43:03.854Z,35.60
2018-06-29T09:45:40.864Z,35.90
2018-06-29T09:48:17.876Z,34.20
2018-06-29T09:50:55.376Z,33.70
2018-06-29T09:53:32.137Z,32.60
2018-06-29T09:56:09.288Z,33.70
2018-06-29T09:58:46.081Z,34.20
2018-06-29T10:01:24.184Z,33.00
2018-06-29T10:04:01.054Z,33.70
2018-06-29T10:06:38.161Z,33.40
2018-06-29T10:09:15.338Z,33.70
2018-06-29T10:11:53.544Z,33.60
2018-06-29T10:14:30.661Z,32.90
2018-06-29T10:17:07.882Z,33.40
2018-06-29T10:19:45.165Z,32.80
2018-06-29T10:22:22.583Z,33.10
2018-06-29T10:24:59.479Z,32.90
2018-06-29T10:27:36.820Z,34.00
2018-06-29T10:30:13.349Z,34.80
2018-06-29T10:32:50.655Z,34.50
2018-06-29T10:35:27.795Z,34.10
2018-06-29T10:38:04.992Z,33.40
2018-06-29T10:40:42.518Z,33.40
2018-06-29T10:43:19.656Z,33.40
2018-06-29T10:45:56.875Z,33.50
2018-06-29T10:48:34.081Z,33.60
2018-06-29T10:51:11.037Z,33.30
2018-06-29T10:53:48.274Z,34.70
2018-06-29T10:56:25.891Z,34.60
2018-06-29T10:59:02.770Z,34.60
2018-06-29T11:01:41.499Z,35.80
2018-06-29T11:04:18.812Z,35.60
2018-06-29T11:06:56.206Z,35.00
2018-06-29T11:09:34.099Z,34.40
2018-06-29T11:12:11.637Z,34.40
2018-06-29T11:14:48.510Z,34.20
2018-06-29T11:17:25.664Z,34.00
2018-06-29T11:20:03.328Z,33.60
2018-06-29T11:22:39.940Z,34.10
2018-06-29T11:25:17.818Z,34.90
2018-06-29T11:27:54.602Z,35.10
2018-06-29T11:30:31.511Z,35.70
2018-06-29T11:33:08.730Z,36.40
2018-06-29T11:35:46.109Z,36.00
2018-06-29T11:38:23.403Z,35.20
2018-06-29T11:40:59.732Z,35.80
2018-06-29T11:43:37.429Z,36.00
2018-06-29T11:46:14.371Z,37.30
2018-06-29T11:48:52.519Z,35.70
2018-06-29T11:51:29.650Z,35.80
2018-06-29T11:54:07.712Z,36.60
2018-06-29T11:56:45.057Z,36.30
2018-06-29T11:59:22.027Z,35.20
2018-06-29T12:01:59.098Z,34.90
2018-06-29T12:04:36.268Z,34.00
2018-06-29T12:07:13.331Z,34.30
2018-06-29T12:09:50.902Z,33.90
2018-06-29T12:12:27.841Z,34.70
2018-06-29T12:15:05.136Z,34.30
2018-06-29T12:17:41.960Z,33.60
2018-06-29T12:20:19.303Z,32.90
2018-06-29T12:22:56.453Z,32.40
2018-06-29T12:25:33.483Z,32.90
2018-06-29T12:28:10.439Z,32.80
2018-06-29T12:30:47.594Z,32.70
2018-06-29T12:33:25.015Z,34.30
2018-06-29T12:36:03.202Z,33.80
2018-06-29T12:38:39.857Z,33.90
2018-06-29T12:41:18.895Z,34.10
2018-06-29T12:43:55.663Z,33.00
2018-06-29T12:46:32.647Z,32.20
2018-06-29T12:49:09.958Z,32.70
2018-06-29T12:51:46.836Z,33.40
2018-06-29T12:54:23.942Z,33.70
2018-06-29T12:57:01.650Z,33.40
2018-06-29T13:02:15.082Z,34.30
2018-06-29T13:04:52.556Z,32.50
2018-06-29T13:07:29.401Z,30.70
2018-06-29T13:10:06.367Z,30.70
2018-06-29T13:12:43.922Z,30.00
2018-06-29T13:15:20.925Z,29.40
2018-06-29T13:17:58.154Z,29.20
2018-06-29T13:20:35.209Z,29.00
2018-06-29T13:23:12.519Z,28.90
2018-06-29T13:25:49.919Z,28.90
2018-06-29T13:28:27.071Z,28.70
2018-06-29T13:31:04.408Z,28.80
2018-06-29T13:33:41.533Z,28.60
2018-06-29T13:36:18.591Z,28.40
2018-06-29T13:38:56.596Z,28.70
2018-06-29T13:41:34.076Z,28.70
2018-06-29T13:44:10.924Z,28.90
2018-06-29T13:46:47.921Z,28.80
2018-06-29T13:49:24.572Z,28.50
2018-06-29T13:52:01.794Z,28.20
2018-06-29T13:54:39.919Z,28.50
2018-06-29T13:57:17.691Z,28.30
2018-06-29T13:59:54.709Z,28.10
2018-06-29T14:02:32.098Z,28.10
2018-06-29T14:05:09.604Z,28.20
2018-06-29T14:07:46.855Z,27.90
2018-06-29T14:10:24.429Z,28.10
2018-06-29T14:13:00.928Z,28.00
2018-06-29T14:15:38.435Z,28.00
2018-06-29T14:18:15.509Z,28.10
2018-06-29T14:20:52.684Z,28.10
2018-06-29T14:23:29.539Z,27.90
2018-06-29T14:26:06.946Z,28.00
2018-06-29T14:28:43.494Z,27.90
2018-06-29T14:31:20.743Z,28.00
2018-06-29T14:33:58.531Z,27.90
2018-06-29T14:36:35.406Z,28.10
2018-06-29T14:39:12.530Z,27.90
2018-06-29T14:41:49.760Z,27.90
2018-06-29T14:44:26.971Z,28.00
2018-06-29T14:47:04.298Z,27.70
2018-06-29T14:49:41.306Z,27.70
2018-06-29T14:52:18.585Z,27.80
2018-06-29T14:54:56.193Z,29.80
2018-06-29T14:57:33.107Z,27.70
2018-06-29T15:00:12.527Z,27.80
2018-06-29T15:02:50.634Z,27.40
2018-06-29T15:05:27.451Z,29.00
2018-06-29T15:08:03.903Z,27.40
2018-06-29T15:10:40.734Z,27.60
2018-06-29T15:13:17.787Z,27.40
2018-06-29T15:18:31.248Z,27.30
2018-06-29T15:21:08.332Z,27.30
2018-06-29T15:23:45.549Z,27.30
2018-06-29T15:26:22.489Z,27.30
2018-06-29T15:29:00.395Z,27.30
2018-06-29T15:31:37.921Z,27.30
2018-06-29T15:34:14.859Z,27.40
2018-06-29T15:36:52.504Z,27.30
2018-06-29T15:39:29.750Z,27.10
2018-06-29T15:42:07.187Z,27.30
2018-06-29T15:44:43.805Z,27.30
2018-06-29T15:47:20.873Z,27.20
2018-06-29T15:49:58.128Z,27.70
2018-06-29T15:52:35.695Z,26.90
2018-06-29T15:55:12.362Z,27.10
2018-06-29T15:57:49.664Z,27.20
2018-06-29T16:00:25.907Z,26.70
2018-06-29T16:03:02.183Z,26.90
2018-06-29T16:05:39.032Z,26.90
2018-06-29T16:08:16.340Z,26.90
2018-06-29T16:10:53.139Z,26.90
2018-06-29T16:13:30.313Z,26.80
2018-06-29T16:16:06.674Z,26.80
2018-06-29T16:18:43.189Z,26.50
2018-06-29T16:21:20.384Z,26.20
2018-06-29T16:23:57.248Z,26.20
2018-06-29T16:26:34.280Z,26.40
2018-06-29T16:29:12.585Z,26.30
2018-06-29T16:31:51.108Z,26.40
2018-06-29T16:34:27.838Z,26.30
2018-06-29T16:37:05.062Z,26.30
2018-06-29T16:39:42.280Z,26.30
2018-06-29T16:42:20.244Z,26.20
2018-06-29T16:44:57.417Z,26.10
2018-06-29T16:47:34.945Z,26.20
2018-06-29T16:50:11.783Z,26.30
2018-06-29T16:52:49.110Z,26.50
2018-06-29T16:55:26.866Z,26.40
2018-06-29T16:58:04.128Z,26.40
2018-06-29T17:00:41.152Z,26.30
2018-06-29T17:03:18.519Z,26.40
2018-06-29T17:05:55.361Z,26.30
2018-06-29T17:08:33.384Z,25.80
2018-06-29T17:11:11.244Z,26.30
2018-06-29T17:13:48.956Z,26.40
2018-06-29T17:16:26.130Z,26.30
2018-06-29T17:19:03.810Z,26.30
2018-06-29T17:21:40.800Z,26.30
2018-06-29T17:24:18.228Z,26.30
2018-06-29T17:26:55.006Z,26.30
2018-06-29T17:29:37.243Z,26.30
2018-06-29T17:32:14.710Z,26.30
2018-06-29T17:34:51.444Z,26.20
2018-06-29T17:37:28.610Z,26.30
2018-06-29T17:40:06.017Z,26.20
2018-06-29T17:42:45.693Z,26.10
2018-06-29T17:45:26.177Z,26.10
2018-06-29T17:48:03.316Z,26.00
2018-06-29T17:50:41.376Z,26.00
2018-06-29T17:53:19.734Z,26.10
2018-06-29T17:55:56.898Z,26.10
2018-06-29T17:58:34.107Z,26.20
2018-06-29T18:01:13.133Z,26.20
2018-06-29T18:03:50.336Z,26.20
2018-06-29T18:09:04.114Z,26.30
2018-06-29T18:11:41.234Z,26.10
2018-06-29T18:14:19.800Z,26.10
2018-06-29T18:16:57.072Z,25.80
2018-06-29T18:19:34.121Z,25.90
2018-06-29T18:22:11.587Z,25.90
2018-06-29T18:24:49.035Z,25.90
2018-06-29T18:27:25.737Z,25.50
2018-06-29T18:30:02.895Z,25.90
2018-06-29T18:32:40.279Z,25.90
2018-06-29T18:35:17.386Z,25.90
2018-06-29T18:37:54.556Z,26.00
2018-06-29T18:40:31.891Z,25.90
2018-06-29T18:43:09.481Z,25.90
2018-06-29T18:45:47.509Z,25.70
2018-06-29T18:48:24.658Z,25.70
2018-06-29T18:51:01.493Z,25.80
2018-06-29T18:53:38.917Z,25.70
2018-06-29T18:56:17.162Z,25.70
2018-06-29T18:58:55.111Z,25.70
2018-06-29T19:01:34.317Z,25.60
2018-06-29T19:04:12.042Z,25.50
2018-06-29T19:06:49.223Z,25.40
2018-06-29T19:09:26.151Z,25.40
2018-06-29T19:12:03.516Z,25.30
2018-06-29T19:14:41.271Z,25.40
2018-06-29T19:17:17.924Z,25.40
2018-06-29T19:22:34.411Z,25.40
2018-06-29T19:25:17.496Z,25.40
2018-06-29T19:27:54.328Z,25.40
2018-06-29T19:30:31.390Z,25.50
2018-06-29T19:33:08.817Z,25.50
2018-06-29T19:35:45.375Z,25.50
2018-06-29T19:38:22.504Z,25.30
2018-06-29T19:40:59.906Z,25.30
2018-06-29T19:43:36.967Z,25.40
2018-06-29T19:46:13.622Z,25.40
2018-06-29T19:48:50.492Z,25.40
2018-06-29T19:51:27.558Z,25.30
2018-06-29T19:56:42.014Z,25.30
2018-06-29T19:59:19.124Z,25.40
2018-06-29T20:01:56.314Z,25.40
2018-06-29T20:04:33.731Z,25.20
2018-06-29T20:07:10.864Z,25.30
2018-06-29T20:09:48.401Z,25.30
2018-06-29T20:12:25.054Z,25.20
2018-06-29T20:15:02.308Z,25.30
2018-06-29T20:17:39.442Z,25.30
2018-06-29T20:20:16.409Z,25.30
2018-06-29T20:22:54.151Z,25.30
2018-06-29T20:25:31.097Z,25.10
2018-06-29T20:28:08.232Z,25.10
2018-06-29T20:30:45.556Z,25.10
2018-06-29T20:33:24.056Z,25.10
2018-06-29T20:36:01.340Z,25.00
2018-06-29T20:38:38.348Z,25.00
2018-06-29T20:41:17.686Z,25.00
2018-06-29T20:44:08.168Z,24.90
2018-06-29T20:46:45.697Z,24.90
2018-06-29T20:49:22.665Z,24.90
2018-06-29T20:51:59.738Z,25.00
2018-06-29T20:54:36.564Z,25.00
2018-06-29T20:57:13.949Z,25.00
2018-06-29T20:59:51.093Z,25.00
2018-06-29T21:02:28.585Z,25.00
2018-06-29T21:05:06.286Z,25.10
2018-06-29T21:07:43.332Z,25.20
2018-06-29T21:13:21.587Z,25.30
2018-06-29T21:15:58.398Z,25.30
2018-06-29T21:18:35.620Z,25.20
2018-06-29T21:21:12.526Z,25.10
2018-06-29T21:26:25.955Z,25.10
2018-06-29T21:29:02.928Z,25.10
2018-06-29T21:31:39.695Z,25.10
2018-06-29T21:34:16.926Z,25.00
2018-06-29T21:36:54.027Z,25.00
2018-06-29T21:39:31.046Z,25.00
2018-06-29T21:42:08.338Z,25.00
2018-06-29T21:44:45.438Z,25.00
2018-06-29T21:47:22.642Z,25.00
2018-06-29T21:50:00.229Z,25.10
2018-06-29T21:52:37.490Z,25.10
2018-06-29T21:55:14.833Z,25.10
2018-06-29T21:57:52.293Z,25.10
2018-06-29T22:00:34.675Z,25.10
2018-06-29T22:03:12.670Z,25.10
2018-06-29T22:05:54.268Z,25.10
2018-06-29T22:08:31.697Z,25.00
2018-06-29T22:11:08.984Z,25.00
2018-06-29T22:13:45.784Z,24.90
2018-06-29T22:16:22.976Z,24.90
2018-06-29T22:19:00.327Z,24.90
2018-06-29T22:21:37.455Z,25.00
2018-06-29T22:24:14.735Z,24.90
2018-06-29T22:26:53.032Z,24.90
2018-06-29T22:29:30.414Z,24.90
2018-06-29T22:32:07.773Z,24.80
2018-06-29T22:34:45.105Z,24.80
2018-06-29T22:37:22.051Z,24.80
2018-06-29T22:39:59.343Z,24.80
2018-06-29T22:42:36.136Z,24.80
2018-06-29T22:45:13.562Z,24.80
2018-06-29T22:47:50.303Z,24.80
2018-06-29T22:53:31.127Z,24.70
2018-06-29T22:56:08.261Z,24.80
2018-06-29T22:58:45.138Z,24.80
2018-06-29T23:01:22.487Z,24.80
2018-06-29T23:03:59.085Z,24.70
2018-06-29T23:06:35.913Z,24.80
2018-06-29T23:09:13.319Z,24.70
2018-06-29T23:14:26.677Z,24.80
2018-06-29T23:17:04.537Z,24.70
2018-06-29T23:19:41.695Z,24.60
2018-06-29T23:22:18.982Z,24.60
2018-06-29T23:24:56.117Z,24.40
2018-06-29T23:27:34.171Z,24.50
2018-06-29T23:30:11.750Z,24.50
2018-06-29T23:32:48.537Z,24.50
2018-06-29T23:35:26.112Z,24.20
2018-06-29T23:38:03.110Z,24.30
2018-06-29T23:40:40.234Z,24.20
2018-06-29T23:43:16.930Z,24.30
2018-06-29T23:45:54.216Z,24.30
2018-06-29T23:48:32.252Z,24.20
2018-06-29T23:51:09.585Z,24.30
2018-06-29T23:53:46.659Z,24.20
2018-06-29T23:56:24.015Z,24.20
2018-06-29T23:59:00.710Z,24.40
